aviador You're here:

CYZV Decoded Metar

SEPT-ILES in QC, CANADA
Report Time2017-08-18 16:00:00
UTC Time2017-08-18 16:26:21
Flight Rules vfr VFR
Wind150° at 11 kt
W.Decomp.*RWY 13: 8.4 kt HW 7.1 kt RCW
RWY 09: 1.9 kt HW 10.8 kt RCW
W.Rank150° ranks 28
Current wind is above 150° avg. (7.0)
Visibility9999 m
Phenomena:N/A
Clouds:Few 050 Hf
Few 170 Hf
Overcast 240 Hf
Expected CloudBase > 2,400 ft AGL from Temp-Dew spread
Ceiling24,000 ft
Temp17°C (ISA +2)
Dew Point11°C (68% RH)
AAT13.4°C
QNH1017 hPa
Density Alt499 ft
Elevation180 ft
Report Wrong Elevation
Raw Report
CYZV 181600Z 15011KT 30SM FEW050 FEW170 OVC240 17/11 A3003 RMK
CU1AC1CI8 CU TR AC TR SLP172 DENSITY ALT 400FT=

Extra information for CYZV:More info

Metar Taf Metar & Taf Last 4 Metars F.Rules Stats Wind Profile Meteogram Temp Stats Airport Information Weather charts Add Link Nearby VenuesMetar ALERT Operation Metar Decoded Social comments